EGHH - Bournemouth Airport
Distance from station: E 5mi, 14km
Updated: 10/23/2017 12:50am
Light rain, Mist, Mostly cloudy
Light rain, Mist, Mostly cloudy
 Wind from SW
Wind: SW 9 mph , 15 km/h
Temperature: 57°F , 14°C
Dew Point: 55°F , 13°C
Humidity: 94%
Barometer: 30.03 inHg , 1017 hPa
Summary: Light rain, Mist
Clouds: Mostly Cloudy
Visibility: 2 miles , 4 km
Cloud details: Mostly Cloudy 500 ft
2017/10/23 07:50 EGHH 230750Z 22008KT 3900 -RA BR BKN005 14/13 Q1017